Time;durP1;ratioP1;P1;durP2;ratioP2;P2;SDS_P1;SDS_P2;PMS_P1;PMS_P2;Temp;Humidity;BMP_temperature;BMP_pressure;BME280_temperature;BME280_humidity;BME280_pressure;Samples;Min_cycle;Max_cycle;Signal;HPM_P1;HPM_P2
2023/08/07 00:01:08;;;;;;;19.90;5.13;;;;;;;;;;5090751;28;20036;-71
2023/08/07 00:03:35;;;;;;;26.50;6.20;;;;;;;;;;5072501;28;20080;-71
2023/08/07 00:06:01;;;;;;;34.85;6.10;;;;;;;;;;5072773;28;20489;-70
2023/08/07 00:08:27;;;;;;;23.92;6.63;;;;;;;;;;5090606;28;20019;-71
2023/08/07 00:10:53;;;;;;;20.38;5.68;;;;;;;;;;5072851;28;20485;-70
2023/08/07 00:13:20;;;;;;;41.20;6.88;;;;;;;;;;5072403;28;20051;-71
2023/08/07 00:15:46;;;;;;;29.10;6.10;;;;;;;;;;5090276;28;20222;-69
2023/08/07 00:18:12;;;;;;;28.27;6.03;;;;;;;;;;5090733;28;20038;-70
2023/08/07 00:20:38;;;;;;;33.90;7.88;;;;;;;;;;5090326;28;20428;-69
2023/08/07 00:23:04;;;;;;;38.75;6.70;;;;;;;;;;5090338;28;20041;-69
2023/08/07 00:25:30;;;;;;;33.45;6.22;;;;;;;;;;5054896;28;20035;-70
2023/08/07 00:27:56;;;;;;;33.95;6.90;;;;;;;;;;5090130;28;20064;-70
2023/08/07 00:30:22;;;;;;;34.50;6.60;;;;;;;;;;5072456;28;20096;-70
2023/08/07 00:32:48;;;;;;;30.73;5.90;;;;;;;;;;5072863;28;20024;-70
2023/08/07 00:35:15;;;;;;;26.80;6.72;;;;;;;;;;5071977;28;20032;-70
2023/08/07 00:37:41;;;;;;;25.33;5.80;;;;;;;;;;5071964;28;20036;-70
2023/08/07 00:40:07;;;;;;;26.05;6.03;;;;;;;;;;5090069;28;20036;-70
2023/08/07 00:42:33;;;;;;;30.20;5.90;;;;;;;;;;5071760;28;20051;-70
2023/08/07 00:45:01;;;;;;;19.10;5.03;;;;;;;;;;5071898;28;20104;-71
2023/08/07 00:47:27;;;;;;;30.55;6.03;;;;;;;;;;5072491;28;20035;-70
2023/08/07 00:49:53;;;;;;;16.70;4.25;;;;;;;;;;5072341;28;20032;-75
2023/08/07 00:52:19;;;;;;;17.70;4.38;;;;;;;;;;5071564;28;20507;-76
2023/08/07 00:54:46;;;;;;;16.20;4.53;;;;;;;;;;5090063;28;20064;-74
2023/08/07 00:57:14;;;;;;;22.42;5.22;;;;;;;;;;5072115;28;20039;-70
2023/08/07 00:59:41;;;;;;;18.35;4.03;;;;;;;;;;5072503;28;20050;-69
2023/08/07 01:02:08;;;;;;;18.77;4.57;;;;;;;;;;5054896;28;20575;-71
2023/08/07 01:04:34;;;;;;;23.15;4.43;;;;;;;;;;5071332;28;20114;-69
2023/08/07 01:07:02;;;;;;;19.80;3.92;;;;;;;;;;5089567;28;20272;-71
2023/08/07 01:09:28;;;;;;;18.05;4.97;;;;;;;;;;5055221;28;20087;-71
2023/08/07 01:12:07;;;;;;;18.63;4.28;;;;;;;;;;5091982;28;20028;-69
2023/08/07 01:14:56;;;;;;;15.00;3.47;;;;;;;;;;5093475;28;20028;-71
2023/08/07 01:17:23;;;;;;;15.23;4.03;;;;;;;;;;5080594;28;20055;-69
2023/08/07 01:19:52;;;;;;;19.75;3.38;;;;;;;;;;5075569;28;20067;-70
2023/08/07 01:22:19;;;;;;;21.73;4.30;;;;;;;;;;5093497;28;20028;-70
2023/08/07 01:24:46;;;;;;;17.95;3.80;;;;;;;;;;5075412;28;20404;-70
2023/08/07 01:27:18;;;;;;;18.40;4.07;;;;;;;;;;5093151;28;20131;-70
2023/08/07 01:29:57;;;;;;;13.82;4.07;;;;;;;;;;5075099;28;20032;-70
2023/08/07 01:32:49;;;;;;;26.40;5.60;;;;;;;;;;5075406;28;20094;-70
2023/08/07 01:35:16;;;;;;;16.05;3.78;;;;;;;;;;5054816;28;20036;-69
2023/08/07 01:37:43;;;;;;;14.50;3.65;;;;;;;;;;5075039;28;20024;-69
2023/08/07 01:40:10;;;;;;;14.35;5.20;;;;;;;;;;5058226;28;20032;-69
2023/08/07 01:42:37;;;;;;;13.50;3.92;;;;;;;;;;5074832;28;20449;-70
2023/08/07 01:45:04;;;;;;;17.17;3.95;;;;;;;;;;5093352;28;20067;-69
2023/08/07 01:47:31;;;;;;;19.15;4.47;;;;;;;;;;5093183;28;20028;-69
2023/08/07 01:49:57;;;;;;;16.20;3.75;;;;;;;;;;5075194;28;20139;-69
2023/08/07 01:52:23;;;;;;;20.55;5.78;;;;;;;;;;5075175;28;20032;-69
2023/08/07 01:54:49;;;;;;;17.50;4.65;;;;;;;;;;5092733;28;20036;-69
2023/08/07 01:57:15;;;;;;;16.67;4.40;;;;;;;;;;5092833;28;20028;-69
2023/08/07 01:59:43;;;;;;;15.40;3.95;;;;;;;;;;5074638;28;20105;-69
2023/08/07 02:02:09;;;;;;;17.90;4.55;;;;;;;;;;5074714;28;20097;-69
2023/08/07 02:04:35;;;;;;;20.45;4.47;;;;;;;;;;5074332;28;20132;-69
2023/08/07 02:07:02;;;;;;;19.00;3.67;;;;;;;;;;5074185;28;20040;-73
2023/08/07 02:09:28;;;;;;;13.88;4.88;;;;;;;;;;5074324;28;20056;-69
2023/08/07 02:11:54;;;;;;;12.20;3.70;;;;;;;;;;5092597;28;20123;-69
2023/08/07 02:14:20;;;;;;;12.88;4.28;;;;;;;;;;5074485;28;20024;-69
2023/08/07 02:16:46;;;;;;;19.67;4.63;;;;;;;;;;5074102;28;20540;-69
2023/08/07 02:19:12;;;;;;;17.88;4.20;;;;;;;;;;5074197;28;20034;-69
2023/08/07 02:21:38;;;;;;;25.20;4.18;;;;;;;;;;5040367;28;20028;-68
2023/08/07 02:24:05;;;;;;;20.83;5.15;;;;;;;;;;5091675;28;20032;-70
2023/08/07 02:26:31;;;;;;;20.13;5.45;;;;;;;;;;5073649;28;20031;-68
2023/08/07 02:28:58;;;;;;;19.88;4.10;;;;;;;;;;5057974;28;20028;-68
2023/08/07 02:31:24;;;;;;;27.15;5.05;;;;;;;;;;5092487;28;20107;-68
2023/08/07 02:33:50;;;;;;;24.58;5.55;;;;;;;;;;5057937;28;20458;-68
2023/08/07 02:36:16;;;;;;;19.05;4.40;;;;;;;;;;5053896;28;20040;-69
2023/08/07 02:38:42;;;;;;;20.10;5.15;;;;;;;;;;5071588;28;20049;-69
2023/08/07 02:41:09;;;;;;;35.33;4.70;;;;;;;;;;5071489;28;20043;-70
2023/08/07 02:43:35;;;;;;;14.52;4.40;;;;;;;;;;5054252;28;20425;-68
2023/08/07 02:46:01;;;;;;;26.58;4.75;;;;;;;;;;5071854;28;20047;-70
2023/08/07 02:48:27;;;;;;;29.38;4.68;;;;;;;;;;5054402;28;20051;-70
2023/08/07 02:50:53;;;;;;;21.58;4.97;;;;;;;;;;5057462;28;20401;-70
2023/08/07 02:53:19;;;;;;;27.35;5.80;;;;;;;;;;5074585;28;20084;-69
2023/08/07 02:55:45;;;;;;;26.42;5.07;;;;;;;;;;5092108;28;20070;-70
2023/08/07 02:58:12;;;;;;;21.58;4.75;;;;;;;;;;5073932;28;20028;-69
2023/08/07 03:00:38;;;;;;;22.15;4.60;;;;;;;;;;5057254;28;20028;-71
2023/08/07 03:03:04;;;;;;;23.38;4.60;;;;;;;;;;5073568;28;20123;-70
2023/08/07 03:05:30;;;;;;;22.85;5.57;;;;;;;;;;5091459;28;20057;-70
2023/08/07 03:07:56;;;;;;;28.90;5.72;;;;;;;;;;5073347;28;20039;-71
2023/08/07 03:10:23;;;;;;;20.88;5.35;;;;;;;;;;5091826;28;20021;-71
2023/08/07 03:12:49;;;;;;;18.40;4.80;;;;;;;;;;5091255;28;20161;-70
2023/08/07 03:15:15;;;;;;;24.05;5.47;;;;;;;;;;5073134;28;20035;-70
2023/08/07 03:17:41;;;;;;;22.42;5.38;;;;;;;;;;5072951;28;20040;-70
2023/08/07 03:20:08;;;;;;;22.65;5.18;;;;;;;;;;5091303;28;20049;-71
2023/08/07 03:22:34;;;;;;;17.85;4.82;;;;;;;;;;5072690;28;20058;-71
2023/08/07 03:25:00;;;;;;;20.13;5.13;;;;;;;;;;5072804;28;20035;-71
2023/08/07 03:27:26;;;;;;;21.50;5.72;;;;;;;;;;5091159;28;20119;-71
2023/08/07 03:29:53;;;;;;;23.15;4.90;;;;;;;;;;5073308;28;20054;-70
2023/08/07 03:32:19;;;;;;;25.27;4.80;;;;;;;;;;5072933;28;20035;-70
2023/08/07 03:34:45;;;;;;;18.55;4.50;;;;;;;;;;5090265;28;20028;-70
2023/08/07 03:37:12;;;;;;;19.52;5.28;;;;;;;;;;5055919;28;20040;-70
2023/08/07 03:39:39;;;;;;;14.07;4.65;;;;;;;;;;5056438;28;20075;-70
2023/08/07 03:42:05;;;;;;;22.15;6.47;;;;;;;;;;5090670;28;20052;-70
2023/08/07 03:44:33;;;;;;;17.52;4.82;;;;;;;;;;5056523;28;20036;-70
2023/08/07 03:46:59;;;;;;;24.48;4.90;;;;;;;;;;5072747;28;20032;-71
2023/08/07 03:49:25;;;;;;;25.52;5.78;;;;;;;;;;5072881;28;20035;-71
2023/08/07 03:51:53;;;;;;;25.23;5.55;;;;;;;;;;5072647;28;20047;-71
2023/08/07 03:54:19;;;;;;;27.33;6.90;;;;;;;;;;5056287;28;20051;-71
2023/08/07 03:56:46;;;;;;;31.45;6.75;;;;;;;;;;5072961;28;20048;-71
2023/08/07 03:59:12;;;;;;;30.50;6.97;;;;;;;;;;5072720;28;20054;-71
2023/08/07 04:01:39;;;;;;;31.63;6.07;;;;;;;;;;5090886;28;20020;-71
2023/08/07 04:04:05;;;;;;;22.92;5.63;;;;;;;;;;5072673;28;20043;-70
2023/08/07 04:06:31;;;;;;;20.48;5.93;;;;;;;;;;5055778;28;20104;-70
2023/08/07 04:08:57;;;;;;;33.60;5.18;;;;;;;;;;5090769;28;20032;-71
2023/08/07 04:11:23;;;;;;;23.83;5.60;;;;;;;;;;5072843;28;20032;-71
2023/08/07 04:13:49;;;;;;;25.08;6.03;;;;;;;;;;5090696;28;20164;-71
2023/08/07 04:16:16;;;;;;;24.48;6.55;;;;;;;;;;5072873;28;20082;-70
2023/08/07 04:18:43;;;;;;;21.63;4.65;;;;;;;;;;5090711;28;20032;-71
2023/08/07 04:21:09;;;;;;;27.17;6.40;;;;;;;;;;5090567;28;20062;-70
2023/08/07 04:23:35;;;;;;;20.70;4.65;;;;;;;;;;5089172;28;20040;-70
2023/08/07 04:26:02;;;;;;;24.63;5.45;;;;;;;;;;5072213;28;20032;-70
2023/08/07 04:28:31;;;;;;;19.58;4.18;;;;;;;;;;5072480;28;20099;-70
2023/08/07 04:30:57;;;;;;;21.00;4.38;;;;;;;;;;5090481;28;20044;-71
2023/08/07 04:33:23;;;;;;;28.65;6.50;;;;;;;;;;5090254;28;20028;-70
2023/08/07 04:35:49;;;;;;;28.77;4.68;;;;;;;;;;5090317;28;20477;-69
2023/08/07 04:38:16;;;;;;;19.88;4.45;;;;;;;;;;5090384;28;20016;-68
2023/08/07 04:40:49;;;;;;;18.02;4.47;;;;;;;;;;5090259;28;20024;-69
2023/08/07 04:43:15;;;;;;;20.35;5.63;;;;;;;;;;5089804;28;20067;-70
2023/08/07 04:45:42;;;;;;;22.70;4.88;;;;;;;;;;5091816;28;20028;-70
2023/08/07 04:48:08;;;;;;;21.38;5.22;;;;;;;;;;5093899;28;20100;-70
2023/08/07 04:50:35;;;;;;;23.52;4.97;;;;;;;;;;5093829;28;20032;-69
2023/08/07 04:53:01;;;;;;;27.77;6.18;;;;;;;;;;5093661;28;20032;-72
2023/08/07 04:55:27;;;;;;;20.20;5.00;;;;;;;;;;5094169;28;20028;-69
2023/08/07 04:57:56;;;;;;;21.77;4.93;;;;;;;;;;5059540;28;20506;-70
2023/08/07 05:00:22;;;;;;;27.83;5.38;;;;;;;;;;5076546;28;20566;-70
2023/08/07 05:02:49;;;;;;;17.38;4.43;;;;;;;;;;5076036;28;20032;-70
2023/08/07 05:05:15;;;;;;;19.42;4.57;;;;;;;;;;5094136;28;20031;-70
2023/08/07 05:07:42;;;;;;;18.88;4.65;;;;;;;;;;5093750;28;20108;-70
2023/08/07 05:10:09;;;;;;;15.68;5.15;;;;;;;;;;5075903;28;20074;-70
2023/08/07 05:12:35;;;;;;;22.80;6.13;;;;;;;;;;5075640;28;20028;-70
2023/08/07 05:15:01;;;;;;;22.48;5.03;;;;;;;;;;5093817;28;20485;-71
2023/08/07 05:17:28;;;;;;;35.58;7.93;;;;;;;;;;5076272;28;20039;-70
2023/08/07 05:19:54;;;;;;;17.35;4.85;;;;;;;;;;5094310;28;20323;-70
2023/08/07 05:22:20;;;;;;;30.10;5.38;;;;;;;;;;5093914;28;20024;-70
2023/08/07 05:24:48;;;;;;;20.98;5.30;;;;;;;;;;5075588;28;20040;-68
2023/08/07 05:27:14;;;;;;;21.83;5.10;;;;;;;;;;5093392;28;20111;-69
2023/08/07 05:29:44;;;;;;;30.58;5.20;;;;;;;;;;5093653;28;20035;-70
2023/08/07 05:32:13;;;;;;;19.58;4.60;;;;;;;;;;5075391;28;20036;-70
2023/08/07 05:34:40;;;;;;;31.17;7.47;;;;;;;;;;5075199;28;20038;-70
2023/08/07 05:37:06;;;;;;;26.40;5.65;;;;;;;;;;5093139;28;20107;-69
2023/08/07 05:39:33;;;;;;;16.63;4.45;;;;;;;;;;5093301;28;20044;-69
2023/08/07 05:41:59;;;;;;;17.60;4.70;;;;;;;;;;5092817;28;20059;-69
2023/08/07 05:44:25;;;;;;;30.33;5.95;;;;;;;;;;5093100;28;20028;-69
2023/08/07 05:46:51;;;;;;;24.85;5.30;;;;;;;;;;5093196;28;20127;-69
2023/08/07 05:49:18;;;;;;;23.10;5.78;;;;;;;;;;5093355;28;20089;-69
2023/08/07 05:51:44;;;;;;;24.23;6.80;;;;;;;;;;5074608;28;20028;-70
2023/08/07 05:54:10;;;;;;;18.70;5.30;;;;;;;;;;5092598;28;20173;-70
2023/08/07 05:56:38;;;;;;;20.45;5.45;;;;;;;;;;5092061;28;20131;-71
2023/08/07 05:59:04;;;;;;;28.70;6.20;;;;;;;;;;5074563;28;20044;-70
2023/08/07 06:01:33;;;;;;;23.35;5.03;;;;;;;;;;5074809;28;20078;-70
2023/08/07 06:03:59;;;;;;;25.40;5.72;;;;;;;;;;5092703;28;20028;-69
2023/08/07 06:06:27;;;;;;;29.35;6.30;;;;;;;;;;5058138;28;20028;-69
2023/08/07 06:08:54;;;;;;;27.10;5.35;;;;;;;;;;5092979;28;20039;-69
2023/08/07 06:11:20;;;;;;;14.40;4.57;;;;;;;;;;5075559;28;20048;-69
2023/08/07 06:13:46;;;;;;;18.60;5.88;;;;;;;;;;5074959;28;20242;-69
2023/08/07 06:16:12;;;;;;;15.82;5.05;;;;;;;;;;5093263;28;20024;-69
2023/08/07 06:18:38;;;;;;;16.25;3.92;;;;;;;;;;5092680;28;20093;-70
2023/08/07 06:21:06;;;;;;;20.83;4.85;;;;;;;;;;5074239;28;20070;-69
2023/08/07 06:23:33;;;;;;;22.23;5.60;;;;;;;;;;5074172;28;20036;-69
2023/08/07 06:26:03;;;;;;;23.30;4.75;;;;;;;;;;5091985;28;20035;-69
2023/08/07 06:28:29;;;;;;;17.10;5.25;;;;;;;;;;5092359;28;20115;-68
2023/08/07 06:31:01;;;;;;;20.45;4.55;;;;;;;;;;5092440;28;20089;-69
2023/08/07 06:33:27;;;;;;;23.73;4.93;;;;;;;;;;5092203;28;20040;-70
2023/08/07 06:35:53;;;;;;;15.88;3.90;;;;;;;;;;5092051;28;20053;-69
2023/08/07 06:38:19;;;;;;;21.50;4.85;;;;;;;;;;5074408;28;20039;-69
2023/08/07 06:40:45;;;;;;;16.90;4.05;;;;;;;;;;5073828;28;20051;-70
2023/08/07 06:43:11;;;;;;;15.00;3.92;;;;;;;;;;5091631;28;20113;-68
2023/08/07 06:45:38;;;;;;;16.63;4.18;;;;;;;;;;5074024;28;20028;-68
2023/08/07 06:48:04;;;;;;;21.08;3.92;;;;;;;;;;5074118;28;20111;-68
2023/08/07 06:50:30;;;;;;;18.63;4.38;;;;;;;;;;5072466;28;20036;-68
2023/08/07 06:52:56;;;;;;;14.20;4.60;;;;;;;;;;5071446;28;20032;-68
2023/08/07 06:55:22;;;;;;;13.73;4.00;;;;;;;;;;5071706;28;20099;-69
2023/08/07 06:57:49;;;;;;;15.05;4.32;;;;;;;;;;5071157;28;20030;-68
2023/08/07 07:00:16;;;;;;;14.77;3.90;;;;;;;;;;5071635;28;20048;-69
2023/08/07 07:02:42;;;;;;;13.88;4.18;;;;;;;;;;5071301;28;20025;-68
2023/08/07 07:05:08;;;;;;;15.80;4.97;;;;;;;;;;5070863;28;20041;-69
2023/08/07 07:07:34;;;;;;;20.63;5.57;;;;;;;;;;5036302;28;20109;-70
2023/08/07 07:10:00;;;;;;;21.20;5.07;;;;;;;;;;5052397;28;20036;-69
2023/08/07 07:12:27;;;;;;;16.13;4.60;;;;;;;;;;5036912;28;20150;-70
2023/08/07 07:14:53;;;;;;;19.27;5.65;;;;;;;;;;5053083;28;20039;-70
2023/08/07 07:17:19;;;;;;;19.40;5.30;;;;;;;;;;5071172;28;20043;-69
2023/08/07 07:19:45;;;;;;;27.73;6.20;;;;;;;;;;5070805;28;20115;-69
2023/08/07 07:22:11;;;;;;;17.08;5.22;;;;;;;;;;5053305;28;20043;-70
2023/08/07 07:24:38;;;;;;;18.23;5.28;;;;;;;;;;5070983;28;20028;-70
2023/08/07 07:27:04;;;;;;;17.33;4.78;;;;;;;;;;5071009;28;20024;-70
2023/08/07 07:29:31;;;;;;;19.75;5.32;;;;;;;;;;5071235;28;20052;-70
2023/08/07 07:31:57;;;;;;;19.95;5.80;;;;;;;;;;5071032;28;20025;-72
2023/08/07 07:34:23;;;;;;;25.45;6.00;;;;;;;;;;5052940;28;20131;-70
2023/08/07 07:36:50;;;;;;;20.02;4.75;;;;;;;;;;5070864;28;20037;-69
2023/08/07 07:39:17;;;;;;;24.25;4.90;;;;;;;;;;5071255;28;20131;-69
2023/08/07 07:41:44;;;;;;;23.83;4.28;;;;;;;;;;5053091;28;20416;-69
2023/08/07 07:44:10;;;;;;;15.80;4.55;;;;;;;;;;5071056;28;20040;-69
2023/08/07 07:46:36;;;;;;;15.85;3.75;;;;;;;;;;5071330;28;20404;-68
2023/08/07 07:49:04;;;;;;;19.35;4.22;;;;;;;;;;5070702;28;20056;-68
2023/08/07 07:51:31;;;;;;;17.95;3.63;;;;;;;;;;5052923;28;20060;-71
2023/08/07 07:53:58;;;;;;;16.05;3.88;;;;;;;;;;5053459;28;20071;-69
2023/08/07 07:56:24;;;;;;;15.00;3.42;;;;;;;;;;5052685;28;20036;-69
2023/08/07 07:58:50;;;;;;;19.05;3.75;;;;;;;;;;5052880;28;20486;-69
2023/08/07 08:01:17;;;;;;;20.30;4.28;;;;;;;;;;5036374;28;20038;-69
2023/08/07 08:03:44;;;;;;;21.67;3.45;;;;;;;;;;5052862;28;20225;-69
2023/08/07 08:06:13;;;;;;;19.55;3.92;;;;;;;;;;5069877;28;20043;-69
2023/08/07 08:08:39;;;;;;;14.25;3.55;;;;;;;;;;5070651;28;20024;-69
2023/08/07 08:11:05;;;;;;;14.98;3.67;;;;;;;;;;5070370;28;20052;-70
2023/08/07 08:13:31;;;;;;;18.77;3.90;;;;;;;;;;5070393;28;20060;-68
2023/08/07 08:15:58;;;;;;;16.20;3.50;;;;;;;;;;5069529;28;20055;-68
2023/08/07 08:18:24;;;;;;;18.73;3.42;;;;;;;;;;5069941;28;20044;-68
2023/08/07 08:20:50;;;;;;;14.38;3.40;;;;;;;;;;5071536;28;20478;-68
2023/08/07 08:23:16;;;;;;;17.25;3.78;;;;;;;;;;5090508;28;20437;-69
2023/08/07 08:25:42;;;;;;;15.95;3.50;;;;;;;;;;5089276;28;20031;-68
2023/08/07 08:28:08;;;;;;;18.38;3.33;;;;;;;;;;5072352;28;20047;-69
2023/08/07 08:30:34;;;;;;;12.75;3.80;;;;;;;;;;5090214;28;20032;-68
2023/08/07 08:33:01;;;;;;;13.95;3.42;;;;;;;;;;5090375;28;20081;-70
2023/08/07 08:35:27;;;;;;;22.48;3.70;;;;;;;;;;5090010;28;20110;-68
2023/08/07 08:37:53;;;;;;;14.40;2.83;;;;;;;;;;5090312;28;20028;-69
2023/08/07 08:40:19;;;;;;;17.05;3.95;;;;;;;;;;5090281;28;20055;-69
2023/08/07 08:42:47;;;;;;;15.85;3.38;;;;;;;;;;5089904;28;20075;-70
2023/08/07 08:45:14;;;;;;;10.95;2.83;;;;;;;;;;5089880;28;20093;-69
2023/08/07 08:47:41;;;;;;;16.85;3.10;;;;;;;;;;5090172;28;20439;-70
2023/08/07 08:50:11;;;;;;;15.15;3.38;;;;;;;;;;5090240;28;20079;-70
2023/08/07 08:52:38;;;;;;;13.80;3.20;;;;;;;;;;5072458;28;20029;-69
2023/08/07 08:55:06;;;;;;;15.23;3.22;;;;;;;;;;5052104;28;20036;-68
2023/08/07 08:57:33;;;;;;;14.18;3.47;;;;;;;;;;5069916;28;20041;-68
2023/08/07 09:00:01;;;;;;;22.98;3.50;;;;;;;;;;5070174;28;20406;-68
2023/08/07 09:02:28;;;;;;;15.25;3.15;;;;;;;;;;5070334;28;20029;-68
2023/08/07 09:04:54;;;;;;;15.95;3.80;;;;;;;;;;5052023;28;20043;-70
2023/08/07 09:07:21;;;;;;;17.90;4.65;;;;;;;;;;5035143;28;20115;-70
2023/08/07 09:09:48;;;;;;;15.15;3.88;;;;;;;;;;5052166;28;20040;-69
2023/08/07 09:12:21;;;;;;;18.42;3.53;;;;;;;;;;5051795;28;20056;-69
2023/08/07 09:14:50;;;;;;;12.35;3.28;;;;;;;;;;5069766;28;20040;-68
2023/08/07 09:17:17;;;;;;;16.70;3.92;;;;;;;;;;5069963;28;20041;-68
2023/08/07 09:19:43;;;;;;;11.15;3.10;;;;;;;;;;5051923;28;20040;-68
2023/08/07 09:22:10;;;;;;;16.48;3.58;;;;;;;;;;5052060;28;20032;-68
2023/08/07 09:24:36;;;;;;;23.33;4.25;;;;;;;;;;5051958;28;20041;-68
2023/08/07 09:27:05;;;;;;;14.43;3.63;;;;;;;;;;5069555;28;20063;-70
2023/08/07 09:29:31;;;;;;;15.93;3.45;;;;;;;;;;5052493;28;20040;-72
2023/08/07 09:31:57;;;;;;;15.23;4.38;;;;;;;;;;5070279;28;20020;-71
2023/08/07 09:34:24;;;;;;;15.40;3.70;;;;;;;;;;5073631;28;20037;-68
2023/08/07 09:36:50;;;;;;;15.63;3.83;;;;;;;;;;5055927;28;20038;-69
2023/08/07 09:39:16;;;;;;;12.70;3.30;;;;;;;;;;5074936;28;20047;-74
2023/08/07 09:41:42;;;;;;;12.07;3.40;;;;;;;;;;5039870;28;20124;-70
2023/08/07 09:44:08;;;;;;;14.55;3.17;;;;;;;;;;5073387;28;20076;-69
2023/08/07 09:46:41;;;;;;;17.33;3.63;;;;;;;;;;5054866;28;20074;-69
2023/08/07 09:49:07;;;;;;;18.92;3.90;;;;;;;;;;5054674;28;20033;-68
2023/08/07 09:51:43;;;;;;;18.10;4.03;;;;;;;;;;5054835;28;20116;-69
2023/08/07 09:54:09;;;;;;;19.92;3.45;;;;;;;;;;5072581;28;20032;-69
2023/08/07 09:56:36;;;;;;;18.20;3.90;;;;;;;;;;5072421;28;20048;-69
2023/08/07 09:59:02;;;;;;;21.10;5.03;;;;;;;;;;5054563;28;20040;-69
2023/08/07 10:01:28;;;;;;;18.55;3.90;;;;;;;;;;5038398;28;20067;-69
2023/08/07 10:03:54;;;;;;;10.48;3.25;;;;;;;;;;5072205;28;20032;-69
2023/08/07 10:06:21;;;;;;;13.50;3.42;;;;;;;;;;5071744;28;20624;-69
2023/08/07 10:08:47;;;;;;;16.55;4.25;;;;;;;;;;5072523;28;20033;-69
2023/08/07 10:11:14;;;;;;;15.10;3.58;;;;;;;;;;5054996;28;20036;-69
2023/08/07 10:13:41;;;;;;;15.27;3.38;;;;;;;;;;5072416;28;20024;-69
2023/08/07 10:16:07;;;;;;;12.52;2.70;;;;;;;;;;5071980;28;20051;-69
2023/08/07 10:18:34;;;;;;;14.55;2.90;;;;;;;;;;5054338;28;20328;-69
2023/08/07 10:21:02;;;;;;;14.07;3.13;;;;;;;;;;5076479;28;20093;-69
2023/08/07 10:23:28;;;;;;;15.75;3.28;;;;;;;;;;5092795;28;20032;-69
2023/08/07 10:25:55;;;;;;;18.90;3.45;;;;;;;;;;5057446;28;20370;-69
2023/08/07 10:28:23;;;;;;;15.98;3.58;;;;;;;;;;5092603;28;20032;-70
2023/08/07 10:30:50;;;;;;;13.15;3.20;;;;;;;;;;5092683;28;20051;-69
2023/08/07 10:33:17;;;;;;;11.98;3.60;;;;;;;;;;5092482;28;20097;-68
2023/08/07 10:35:48;;;;;;;9.00;2.60;;;;;;;;;;5091702;28;20028;-69
2023/08/07 10:38:14;;;;;;;13.40;2.92;;;;;;;;;;5092459;28;20181;-69
2023/08/07 10:41:00;;;;;;;12.88;2.80;;;;;;;;;;5092463;28;20024;-69
2023/08/07 10:43:27;;;;;;;9.13;2.67;;;;;;;;;;5091791;28;20113;-68
2023/08/07 10:45:54;;;;;;;13.90;3.03;;;;;;;;;;5091966;28;20036;-69
2023/08/07 10:48:21;;;;;;;10.63;2.92;;;;;;;;;;5091718;28;20102;-68
2023/08/07 10:50:47;;;;;;;12.95;3.22;;;;;;;;;;5092421;28;20135;-68
2023/08/07 10:53:19;;;;;;;12.48;3.20;;;;;;;;;;5092206;28;20065;-68
2023/08/07 10:55:49;;;;;;;13.23;3.08;;;;;;;;;;5091664;28;20093;-69
2023/08/07 10:58:25;;;;;;;11.52;3.20;;;;;;;;;;5073784;28;20024;-69
2023/08/07 11:00:51;;;;;;;13.18;3.50;;;;;;;;;;5091892;28;20040;-69
2023/08/07 11:03:26;;;;;;;16.65;3.58;;;;;;;;;;5091408;28;20113;-69
2023/08/07 11:05:53;;;;;;;12.75;3.45;;;;;;;;;;5091491;28;20056;-69
2023/08/07 11:08:23;;;;;;;11.65;3.40;;;;;;;;;;5091690;28;20033;-69
2023/08/07 11:10:50;;;;;;;12.85;3.40;;;;;;;;;;5091722;28;20379;-72
2023/08/07 11:13:17;;;;;;;19.23;4.03;;;;;;;;;;5092655;28;20024;-69
2023/08/07 11:15:44;;;;;;;16.27;3.90;;;;;;;;;;5091889;28;20032;-69
2023/08/07 11:18:10;;;;;;;13.57;4.00;;;;;;;;;;5091570;28;20104;-69
2023/08/07 11:20:38;;;;;;;14.93;4.13;;;;;;;;;;5073888;28;20054;-70
2023/08/07 11:23:06;;;;;;;12.73;4.07;;;;;;;;;;5091998;28;20035;-70
2023/08/07 11:25:32;;;;;;;15.43;3.70;;;;;;;;;;5073577;28;20043;-69
2023/08/07 11:27:59;;;;;;;14.18;3.45;;;;;;;;;;5056142;28;20392;-69
2023/08/07 11:30:25;;;;;;;13.75;3.00;;;;;;;;;;5091086;28;20028;-69
2023/08/07 11:32:52;;;;;;;13.90;3.42;;;;;;;;;;5072905;28;20085;-69
2023/08/07 11:35:18;;;;;;;9.80;3.42;;;;;;;;;;5090734;28;20119;-68
2023/08/07 11:37:50;;;;;;;13.25;2.88;;;;;;;;;;5072519;28;20123;-68
2023/08/07 11:40:16;;;;;;;11.95;3.13;;;;;;;;;;5090834;28;20096;-68
2023/08/07 11:42:43;;;;;;;9.82;2.65;;;;;;;;;;5090678;28;20090;-68
2023/08/07 11:45:09;;;;;;;9.52;2.92;;;;;;;;;;5090801;28;20040;-68
2023/08/07 11:47:35;;;;;;;14.95;2.67;;;;;;;;;;5072986;28;20096;-68
2023/08/07 11:50:02;;;;;;;11.05;3.05;;;;;;;;;;5091011;28;20035;-68
2023/08/07 11:52:28;;;;;;;8.93;2.80;;;;;;;;;;5090882;28;20028;-68
2023/08/07 11:54:55;;;;;;;7.10;2.50;;;;;;;;;;5090277;28;20432;-69
2023/08/07 11:57:21;;;;;;;13.32;3.25;;;;;;;;;;5072758;28;20028;-69
2023/08/07 11:59:48;;;;;;;11.70;2.72;;;;;;;;;;5056014;28;20036;-69
2023/08/07 12:02:14;;;;;;;14.10;2.75;;;;;;;;;;5090776;28;20130;-69
2023/08/07 12:04:41;;;;;;;11.50;3.17;;;;;;;;;;5090746;28;20396;-69
2023/08/07 12:07:10;;;;;;;9.40;2.72;;;;;;;;;;5072102;28;20157;-69
2023/08/07 12:09:38;;;;;;;9.23;2.60;;;;;;;;;;5089197;28;20052;-69
2023/08/07 12:12:04;;;;;;;7.75;2.45;;;;;;;;;;5090895;28;20039;-69
2023/08/07 12:14:30;;;;;;;8.82;2.55;;;;;;;;;;5090657;28;20032;-70
2023/08/07 12:16:57;;;;;;;9.55;2.30;;;;;;;;;;5090649;28;20032;-70
2023/08/07 12:19:23;;;;;;;10.15;2.45;;;;;;;;;;5072447;28;20040;-70
2023/08/07 12:21:49;;;;;;;11.20;2.42;;;;;;;;;;5072372;28;20036;-68
2023/08/07 12:24:15;;;;;;;10.05;2.20;;;;;;;;;;5072846;28;20055;-69
2023/08/07 12:26:42;;;;;;;8.02;1.90;;;;;;;;;;5048309;28;20079;-68
2023/08/07 12:29:08;;;;;;;9.68;2.40;;;;;;;;;;5090894;28;20102;-69
2023/08/07 12:31:35;;;;;;;10.95;2.60;;;;;;;;;;5072642;28;20028;-69
2023/08/07 12:34:01;;;;;;;7.10;2.20;;;;;;;;;;5090444;28;20054;-70
2023/08/07 12:36:27;;;;;;;10.63;3.10;;;;;;;;;;5089759;28;20044;-69
2023/08/07 12:38:53;;;;;;;11.82;2.40;;;;;;;;;;5090335;28;20059;-69
2023/08/07 12:41:19;;;;;;;8.63;2.30;;;;;;;;;;5055647;28;20043;-69
2023/08/07 12:43:46;;;;;;;7.80;2.25;;;;;;;;;;5089991;28;20457;-69
2023/08/07 12:46:12;;;;;;;6.18;1.88;;;;;;;;;;5090396;28;20111;-69
2023/08/07 12:48:38;;;;;;;11.60;2.20;;;;;;;;;;5090270;28;20038;-68
2023/08/07 12:51:05;;;;;;;6.60;1.90;;;;;;;;;;5090181;28;20032;-67
2023/08/07 12:53:31;;;;;;;12.05;2.60;;;;;;;;;;5090621;28;20129;-70
2023/08/07 12:55:57;;;;;;;5.90;1.98;;;;;;;;;;5089832;28;20132;-68
2023/08/07 12:58:27;;;;;;;8.82;2.08;;;;;;;;;;5090017;28;20330;-69
2023/08/07 13:00:53;;;;;;;8.17;2.00;;;;;;;;;;5090048;28;20036;-68
2023/08/07 13:03:20;;;;;;;14.88;2.10;;;;;;;;;;5087510;28;20031;-69
2023/08/07 13:05:46;;;;;;;7.35;2.15;;;;;;;;;;5069515;28;20533;-69
2023/08/07 13:08:13;;;;;;;6.25;1.80;;;;;;;;;;5073397;28;20040;-69
2023/08/07 13:10:39;;;;;;;7.78;2.05;;;;;;;;;;5073608;28;20043;-70
2023/08/07 13:13:05;;;;;;;9.02;2.13;;;;;;;;;;5056026;28;20029;-70
2023/08/07 13:15:31;;;;;;;5.65;1.88;;;;;;;;;;5055832;28;20086;-68
2023/08/07 13:17:57;;;;;;;5.55;1.98;;;;;;;;;;5055635;28;20122;-69
2023/08/07 13:20:25;;;;;;;5.32;1.98;;;;;;;;;;5073595;28;20044;-69
2023/08/07 13:22:51;;;;;;;6.50;1.80;;;;;;;;;;5055598;28;21054;-70
2023/08/07 13:25:18;;;;;;;6.53;1.70;;;;;;;;;;5073383;28;20039;-69
2023/08/07 13:27:44;;;;;;;12.48;2.20;;;;;;;;;;5072825;28;20062;-69
2023/08/07 13:30:11;;;;;;;7.80;2.20;;;;;;;;;;5073276;28;20040;-69
2023/08/07 13:32:37;;;;;;;10.10;1.88;;;;;;;;;;5075866;28;20031;-69
2023/08/07 13:35:03;;;;;;;11.77;1.92;;;;;;;;;;5060560;28;20036;-69
2023/08/07 13:37:29;;;;;;;7.57;1.95;;;;;;;;;;5092329;28;20040;-69
2023/08/07 13:39:56;;;;;;;5.88;2.20;;;;;;;;;;5082917;28;20055;-69
2023/08/07 13:42:25;;;;;;;10.13;2.20;;;;;;;;;;5082477;28;20047;-68
2023/08/07 13:44:51;;;;;;;7.20;2.13;;;;;;;;;;5075672;28;20028;-69
2023/08/07 13:47:20;;;;;;;6.75;2.10;;;;;;;;;;5080622;28;20036;-69
2023/08/07 13:49:46;;;;;;;8.30;2.20;;;;;;;;;;5093658;28;20035;-68
2023/08/07 13:52:12;;;;;;;9.45;2.20;;;;;;;;;;5075151;28;20028;-68
2023/08/07 13:54:39;;;;;;;2.50;1.60;;;;;;;;;;5093079;28;20119;-69
2023/08/07 13:57:06;;;;;;;6.25;1.70;;;;;;;;;;5074933;28;20040;-69
2023/08/07 13:59:32;;;;;;;6.75;2.20;;;;;;;;;;5092878;28;20080;-69
2023/08/07 14:01:59;;;;;;;9.45;2.10;;;;;;;;;;5092404;28;20044;-69
2023/08/07 14:04:26;;;;;;;5.50;2.13;;;;;;;;;;5090111;28;20054;-69
2023/08/07 14:06:52;;;;;;;11.10;2.40;;;;;;;;;;5081003;28;20090;-69
2023/08/07 14:09:21;;;;;;;6.15;2.30;;;;;;;;;;5057883;28;20052;-69
2023/08/07 14:11:47;;;;;;;8.43;2.40;;;;;;;;;;5054995;28;20048;-69
2023/08/07 14:14:13;;;;;;;9.13;2.60;;;;;;;;;;5054623;28;20048;-69
2023/08/07 14:16:39;;;;;;;11.35;2.65;;;;;;;;;;5071848;28;20127;-69
2023/08/07 14:19:05;;;;;;;9.07;2.72;;;;;;;;;;5090881;28;20039;-70
2023/08/07 14:21:32;;;;;;;13.70;2.90;;;;;;;;;;5073757;28;20764;-69
2023/08/07 14:23:58;;;;;;;10.63;2.67;;;;;;;;;;5091779;28;20127;-69
2023/08/07 14:26:24;;;;;;;5.28;1.95;;;;;;;;;;5092019;28;20024;-69
2023/08/07 14:28:50;;;;;;;8.82;1.92;;;;;;;;;;5091456;28;20024;-70